Time;durP1;ratioP1;P1;durP2;ratioP2;P2;SDS_P1;SDS_P2;PMS_P1;PMS_P2;Temp;Humidity;BMP_temperature;BMP_pressure;BME280_temperature;BME280_humidity;BME280_pressure;Samples;Min_cycle;Max_cycle;Signal;HPM_P1;HPM_P2
2021/09/22 00:01:39;;;;;;;8.30;7.40;;;13.40;99.90;;;;;;5097613;28;20876;-84
2021/09/22 00:04:06;;;;;;;7.90;7.10;;;13.40;99.90;;;;;;5096550;28;20459;-82
2021/09/22 00:06:33;;;;;;;9.03;7.30;;;13.40;99.90;;;;;;5099692;28;20451;-85
2021/09/22 00:09:00;;;;;;;8.10;7.10;;;13.50;99.90;;;;;;5094057;28;21382;-82
2021/09/22 00:11:27;;;;;;;8.07;7.13;;;13.50;99.90;;;;;;5096525;28;20864;-82
2021/09/22 00:13:56;;;;;;;7.93;7.20;;;13.50;99.90;;;;;;5096338;28;20461;-83
2021/09/22 00:16:24;;;;;;;8.63;7.67;;;13.50;99.90;;;;;;5097962;28;20543;-83
2021/09/22 00:18:51;;;;;;;12.60;7.80;;;13.40;99.90;;;;;;5093707;28;20897;-82
2021/09/22 00:21:20;;;;;;;8.07;7.23;;;13.40;99.90;;;;;;5103706;28;21013;-82
2021/09/22 00:23:47;;;;;;;8.13;7.30;;;13.40;99.90;;;;;;5103475;28;20859;-82
2021/09/22 00:26:14;;;;;;;7.87;7.07;;;13.40;99.90;;;;;;5101390;28;20459;-82
2021/09/22 00:28:42;;;;;;;7.53;6.57;;;13.30;99.90;;;;;;5096424;28;20491;-82
2021/09/22 00:31:10;;;;;;;7.80;6.70;;;13.30;99.90;;;;;;5099215;28;20464;-83
2021/09/22 00:33:38;;;;;;;8.10;7.30;;;13.20;99.90;;;;;;5096058;28;20460;-83
2021/09/22 00:36:06;;;;;;;9.53;7.00;;;13.20;99.90;;;;;;5091401;28;20827;-84
2021/09/22 00:38:33;;;;;;;10.63;7.40;;;13.20;99.90;;;;;;5097598;28;20467;-83
2021/09/22 00:41:01;;;;;;;11.93;6.70;;;13.20;99.90;;;;;;5101164;28;20483;-82
2021/09/22 00:43:28;;;;;;;8.07;7.27;;;13.10;99.90;;;;;;5097431;28;20454;-83
2021/09/22 00:46:00;;;;;;;7.97;7.17;;;13.10;99.90;;;;;;5102581;28;20459;-82
2021/09/22 00:48:29;;;;;;;8.40;7.03;;;13.10;99.90;;;;;;5103897;28;20451;-83
2021/09/22 00:50:56;;;;;;;8.53;7.23;;;13.10;99.90;;;;;;5095871;28;20489;-82
2021/09/22 00:53:23;;;;;;;8.53;7.63;;;13.10;99.90;;;;;;5095625;28;20755;-82
2021/09/22 00:55:51;;;;;;;7.50;6.80;;;13.20;99.90;;;;;;5103555;28;20464;-83
2021/09/22 00:58:18;;;;;;;7.13;6.43;;;13.20;99.90;;;;;;5095210;28;20469;-82
2021/09/22 01:00:46;;;;;;;8.00;7.07;;;13.20;99.90;;;;;;5100972;28;20739;-83
2021/09/22 01:03:13;;;;;;;8.03;6.97;;;13.20;99.90;;;;;;5098751;28;20568;-83
2021/09/22 01:05:45;;;;;;;8.73;7.53;;;13.20;99.90;;;;;;5092945;28;20917;-83
2021/09/22 01:08:15;;;;;;;7.70;6.77;;;13.20;99.90;;;;;;5095555;28;20484;-82
2021/09/22 01:10:42;;;;;;;8.00;7.20;;;13.30;99.90;;;;;;5095411;28;20459;-82
2021/09/22 01:13:09;;;;;;;8.37;7.50;;;13.30;99.90;;;;;;5101234;28;20464;-82
2021/09/22 01:15:42;;;;;;;7.30;6.60;;;13.20;99.90;;;;;;5090523;28;20570;-84
2021/09/22 01:18:12;;;;;;;8.03;7.23;;;13.20;99.90;;;;;;5102493;28;20491;-84
2021/09/22 01:20:42;;;;;;;8.13;7.33;;;13.10;99.90;;;;;;5094745;28;20474;-84
2021/09/22 01:23:11;;;;;;;8.03;7.20;;;13.10;99.90;;;;;;5096954;28;20546;-82
2021/09/22 01:25:41;;;;;;;10.07;7.80;;;13.00;99.90;;;;;;5097397;28;20473;-82
2021/09/22 01:28:09;;;;;;;7.73;7.03;;;;;;;;;;5093176;28;20484;-82
2021/09/22 01:30:36;;;;;;;8.50;7.63;;;12.90;99.90;;;;;;5092494;28;20465;-83
2021/09/22 01:33:05;;;;;;;7.60;6.93;;;12.90;99.90;;;;;;5092885;28;20458;-82
2021/09/22 01:35:35;;;;;;;8.00;7.20;;;12.90;99.90;;;;;;5094708;28;20477;-82
2021/09/22 01:38:03;;;;;;;9.50;7.10;;;12.80;99.90;;;;;;5103144;28;20540;-84
2021/09/22 01:40:33;;;;;;;7.90;6.73;;;12.80;99.90;;;;;;5091219;28;20553;-82
2021/09/22 01:43:01;;;;;;;10.33;7.30;;;12.80;99.90;;;;;;5100344;28;20494;-81
2021/09/22 01:45:28;;;;;;;8.70;7.43;;;12.70;99.90;;;;;;5097154;28;20467;-82
2021/09/22 01:47:56;;;;;;;8.80;7.00;;;12.70;99.90;;;;;;5100804;28;20551;-83
2021/09/22 01:50:23;;;;;;;9.57;7.70;;;12.70;99.90;;;;;;5101332;28;20465;-81
2021/09/22 01:52:52;;;;;;;8.77;7.67;;;12.70;99.90;;;;;;5098623;28;20449;-82
2021/09/22 01:55:22;;;;;;;8.80;7.83;;;12.60;99.90;;;;;;5094762;28;20449;-84
2021/09/22 01:57:51;;;;;;;9.70;7.93;;;12.60;99.90;;;;;;5094694;28;20478;-82
2021/09/22 02:00:19;;;;;;;10.10;7.67;;;12.60;99.90;;;;;;5094916;28;20458;-84
2021/09/22 02:02:46;;;;;;;8.27;7.47;;;12.50;99.90;;;;;;5095755;28;20503;-83
2021/09/22 02:05:13;;;;;;;7.70;6.87;;;12.50;99.90;;;;;;5095187;28;20468;-83
2021/09/22 02:07:42;;;;;;;16.23;8.27;;;12.50;99.90;;;;;;5092836;28;20546;-82
2021/09/22 02:10:11;;;;;;;11.30;8.10;;;12.40;99.90;;;;;;5098578;28;20497;-85
2021/09/22 02:12:38;;;;;;;9.63;8.07;;;12.40;99.90;;;;;;5096784;28;20983;-83
2021/09/22 02:15:08;;;;;;;9.80;7.67;;;12.40;99.90;;;;;;5104746;28;20544;-82
2021/09/22 02:17:51;;;;;;;10.33;8.00;;;12.40;99.90;;;;;;5101511;28;20457;-83
2021/09/22 02:20:20;;;;;;;10.93;9.00;;;12.30;99.90;;;;;;5095705;28;20549;-84
2021/09/22 02:22:47;;;;;;;8.47;7.67;;;12.30;99.90;;;;;;5098462;28;20488;-83
2021/09/22 02:25:15;;;;;;;8.53;7.73;;;12.30;99.90;;;;;;5101117;28;20715;-82
2021/09/22 02:27:42;;;;;;;10.20;8.60;;;12.30;99.90;;;;;;5097529;28;20481;-82
2021/09/22 02:30:14;;;;;;;10.50;9.43;;;12.30;99.90;;;;;;5105699;28;20997;-82
2021/09/22 02:32:43;;;;;;;8.63;7.83;;;12.30;99.90;;;;;;5103331;28;20828;-85
2021/09/22 02:35:12;;;;;;;10.10;8.77;;;12.30;99.90;;;;;;5106055;28;20921;-85
2021/09/22 02:37:39;;;;;;;10.23;8.53;;;12.30;99.90;;;;;;5099833;28;20996;-81
2021/09/22 02:40:12;;;;;;;11.77;9.20;;;12.30;99.90;;;;;;5101735;28;20473;-83
2021/09/22 02:42:41;;;;;;;11.27;8.30;;;12.30;99.90;;;;;;5101196;28;20491;-84
2021/09/22 02:45:09;;;;;;;8.57;7.70;;;12.20;99.90;;;;;;5094453;28;20462;-82
2021/09/22 02:47:38;;;;;;;9.10;8.20;;;12.20;99.90;;;;;;5098885;28;20491;-83
2021/09/22 02:50:06;;;;;;;9.80;8.20;;;12.20;99.90;;;;;;5105629;28;20465;-82
2021/09/22 02:52:34;;;;;;;11.17;9.30;;;12.20;99.90;;;;;;5098830;28;20463;-82
2021/09/22 02:55:02;;;;;;;12.53;9.27;;;12.20;99.90;;;;;;5097494;28;20458;-84
2021/09/22 02:57:30;;;;;;;9.70;8.20;;;12.10;99.90;;;;;;5093965;28;20471;-83
2021/09/22 02:59:58;;;;;;;9.80;8.10;;;12.10;99.90;;;;;;5096724;28;20473;-83
2021/09/22 03:02:25;;;;;;;9.90;8.80;;;12.10;99.90;;;;;;5096725;28;20469;-85
2021/09/22 03:04:53;;;;;;;11.80;9.07;;;12.10;99.90;;;;;;5102011;28;20976;-83
2021/09/22 03:07:20;;;;;;;13.13;8.50;;;12.10;99.90;;;;;;5098916;28;20517;-81
2021/09/22 03:09:48;;;;;;;9.33;8.33;;;12.10;99.90;;;;;;5103879;28;20469;-84
2021/09/22 03:12:14;;;;;;;8.50;7.80;;;12.10;99.90;;;;;;5099355;28;20976;-83
2021/09/22 03:14:41;;;;;;;10.03;7.27;;;12.10;99.90;;;;;;5098770;28;20495;-84
2021/09/22 03:17:09;;;;;;;9.13;8.27;;;12.10;99.90;;;;;;5099875;28;20462;-83
2021/09/22 03:19:36;;;;;;;11.63;9.93;;;12.10;99.90;;;;;;5097057;28;20831;-82
2021/09/22 03:22:06;;;;;;;10.23;8.00;;;12.10;99.90;;;;;;5097275;28;20492;-83
2021/09/22 03:24:32;;;;;;;10.23;9.20;;;12.10;99.90;;;;;;5097656;28;20467;-82
2021/09/22 03:26:59;;;;;;;11.07;9.93;;;12.10;99.90;;;;;;5100474;28;20556;-84
2021/09/22 03:29:27;;;;;;;10.03;9.03;;;12.10;99.90;;;;;;5100673;28;20491;-81
2021/09/22 03:31:55;;;;;;;9.70;8.00;;;12.10;99.90;;;;;;5098079;28;20489;-82
2021/09/22 03:34:22;;;;;;;10.77;8.23;;;12.20;99.90;;;;;;5096914;28;20679;-83
2021/09/22 03:36:50;;;;;;;11.43;8.30;;;12.20;99.90;;;;;;5098844;28;20537;-83
2021/09/22 03:39:18;;;;;;;10.23;8.87;;;12.20;99.90;;;;;;5099212;28;20465;-82
2021/09/22 03:41:47;;;;;;;9.70;8.80;;;12.30;99.90;;;;;;5096477;28;20486;-83
2021/09/22 03:44:14;;;;;;;9.43;8.53;;;12.30;99.90;;;;;;5088691;28;20462;-82
2021/09/22 03:46:41;;;;;;;9.70;8.40;;;12.30;99.90;;;;;;5099031;28;20468;-83
2021/09/22 03:49:08;;;;;;;9.17;8.27;;;12.30;99.90;;;;;;5094719;28;20450;-82
2021/09/22 03:51:36;;;;;;;11.60;8.90;;;12.30;99.90;;;;;;5109052;28;20839;-82
2021/09/22 03:54:04;;;;;;;8.57;7.80;;;12.30;99.90;;;;;;5098436;28;20815;-83
2021/09/22 03:56:32;;;;;;;9.60;8.60;;;12.30;99.90;;;;;;5101541;28;20545;-83
2021/09/22 03:59:00;;;;;;;10.33;8.90;;;12.30;99.90;;;;;;5094536;28;20472;-82
2021/09/22 04:01:28;;;;;;;12.30;9.40;;;12.30;99.90;;;;;;5103642;28;20816;-82
2021/09/22 04:03:55;;;;;;;11.00;9.27;;;12.30;99.90;;;;;;5096082;28;20466;-82
2021/09/22 04:06:23;;;;;;;13.23;9.33;;;12.30;99.90;;;;;;5100114;28;20460;-83
2021/09/22 04:08:51;;;;;;;9.13;8.17;;;12.30;99.90;;;;;;5097917;28;20489;-84
2021/09/22 04:11:18;;;;;;;9.00;8.00;;;12.30;99.90;;;;;;5096398;28;20450;-83
2021/09/22 04:13:48;;;;;;;8.97;8.07;;;12.20;99.90;;;;;;5098968;28;20467;-83
2021/09/22 04:16:17;;;;;;;12.87;8.57;;;12.20;99.90;;;;;;5092625;28;20465;-82
2021/09/22 04:18:44;;;;;;;13.33;7.87;;;12.20;99.90;;;;;;5099992;28;20458;-82
2021/09/22 04:21:11;;;;;;;8.43;7.50;;;12.10;99.90;;;;;;5099103;28;20467;-82
2021/09/22 04:23:40;;;;;;;9.57;8.67;;;12.10;99.90;;;;;;5097918;28;20510;-84
2021/09/22 04:26:07;;;;;;;12.60;8.53;;;12.10;99.90;;;;;;5095392;28;20458;-82
2021/09/22 04:28:36;;;;;;;9.10;7.83;;;12.00;99.90;;;;;;5091874;28;20541;-83
2021/09/22 04:31:05;;;;;;;9.60;8.60;;;12.00;99.90;;;;;;5097253;28;20453;-83
2021/09/22 04:33:33;;;;;;;9.53;8.60;;;12.00;99.90;;;;;;5091489;28;20609;-82
2021/09/22 04:36:00;;;;;;;9.60;8.57;;;12.00;99.90;;;;;;5102091;28;20959;-83
2021/09/22 04:38:29;;;;;;;9.43;8.50;;;12.00;99.90;;;;;;5101755;28;20547;-83
2021/09/22 04:40:56;;;;;;;9.70;8.37;;;12.00;99.90;;;;;;5096717;28;20491;-84
2021/09/22 04:43:24;;;;;;;8.20;7.40;;;12.00;99.90;;;;;;5101497;28;20837;-85
2021/09/22 04:45:51;;;;;;;9.13;8.23;;;11.90;99.90;;;;;;5093119;28;20507;-82
2021/09/22 04:48:19;;;;;;;10.60;9.50;;;11.90;99.90;;;;;;5095093;28;20550;-82
2021/09/22 04:50:46;;;;;;;11.47;9.67;;;11.90;99.90;;;;;;5096696;28;20465;-83
2021/09/22 04:53:13;;;;;;;10.60;9.50;;;11.80;99.90;;;;;;5095920;28;20462;-83
2021/09/22 04:55:43;;;;;;;12.75;10.15;;;11.80;99.90;;;;;;5099199;28;20548;-83
2021/09/22 04:58:10;;;;;;;10.97;9.57;;;11.80;99.90;;;;;;5095925;28;20310;-83
2021/09/22 05:00:39;;;;;;;10.67;9.00;;;11.80;99.90;;;;;;5099750;28;20565;-83
2021/09/22 05:03:06;;;;;;;10.17;9.17;;;11.80;99.90;;;;;;5096306;28;20525;-82
2021/09/22 05:05:34;;;;;;;9.77;8.77;;;11.80;99.90;;;;;;5096495;28;20533;-83
2021/09/22 05:08:02;;;;;;;9.20;8.40;;;11.80;99.90;;;;;;5098241;28;20540;-82
2021/09/22 05:10:29;;;;;;;9.40;8.47;;;11.70;99.90;;;;;;5095734;28;20286;-83
2021/09/22 05:12:56;;;;;;;12.90;9.27;;;11.70;99.90;;;;;;5095055;28;22827;-83
2021/09/22 05:15:23;;;;;;;10.37;9.30;;;11.70;99.90;;;;;;5097545;28;20203;-82
2021/09/22 05:17:51;;;;;;;12.20;8.37;;;11.70;99.90;;;;;;5100273;28;20648;-82
2021/09/22 05:20:19;;;;;;;11.90;8.40;;;11.70;99.90;;;;;;5098362;28;20888;-82
2021/09/22 05:22:47;;;;;;;10.17;9.10;;;11.60;99.90;;;;;;5094117;28;20606;-83
2021/09/22 05:25:15;;;;;;;10.93;8.07;;;11.70;99.90;;;;;;5096862;28;20450;-83
2021/09/22 05:27:46;;;;;;;9.50;8.60;;;11.60;99.90;;;;;;5090229;28;20768;-83
2021/09/22 05:30:15;;;;;;;12.70;8.93;;;11.60;99.90;;;;;;5100743;28;20509;-83
2021/09/22 05:32:44;;;;;;;9.13;8.23;;;11.60;99.90;;;;;;5099630;28;20469;-82
2021/09/22 05:35:12;;;;;;;8.77;7.67;;;11.60;99.90;;;;;;5094607;28;20454;-82
2021/09/22 05:37:39;;;;;;;9.47;8.57;;;11.50;99.90;;;;;;5097879;28;20471;-84
2021/09/22 05:40:10;;;;;;;10.13;8.20;;;11.50;99.90;;;;;;5094960;28;20461;-81
2021/09/22 05:42:37;;;;;;;8.93;8.13;;;11.50;99.90;;;;;;5095000;28;20489;-83
2021/09/22 05:45:06;;;;;;;8.80;7.90;;;11.50;99.90;;;;;;5095956;28;20211;-83
2021/09/22 05:47:34;;;;;;;9.48;8.27;;;11.40;99.90;;;;;;5097733;28;20290;-83
2021/09/22 05:50:04;;;;;;;9.50;8.27;;;11.40;99.90;;;;;;5098162;28;20662;-83
2021/09/22 05:52:31;;;;;;;10.40;8.93;;;11.40;99.90;;;;;;5095913;28;20458;-84
2021/09/22 05:54:59;;;;;;;10.13;9.00;;;11.40;99.90;;;;;;5093338;28;20541;-83
2021/09/22 05:57:28;;;;;;;10.13;8.70;;;11.40;99.90;;;;;;5100709;28;20490;-82
2021/09/22 05:59:56;;;;;;;9.80;8.80;;;11.40;99.90;;;;;;5099793;28;20973;-82
2021/09/22 06:02:23;;;;;;;9.82;8.73;;;11.40;99.90;;;;;;5091712;28;20769;-84
2021/09/22 06:04:51;;;;;;;10.57;8.97;;;11.40;99.90;;;;;;5095959;28;20737;-82
2021/09/22 06:07:19;;;;;;;9.10;7.90;;;11.40;99.90;;;;;;5094783;28;20463;-84
2021/09/22 06:09:47;;;;;;;13.27;8.88;;;11.40;99.90;;;;;;5095781;28;20461;-84
2021/09/22 06:12:14;;;;;;;9.95;8.95;;;11.50;99.90;;;;;;5096437;28;20199;-84
2021/09/22 06:14:44;;;;;;;9.43;8.30;;;11.50;99.90;;;;;;5093168;28;20200;-83
2021/09/22 06:17:11;;;;;;;10.80;7.78;;;11.50;99.90;;;;;;5097516;28;20457;-82
2021/09/22 06:19:39;;;;;;;10.70;8.73;;;11.50;99.90;;;;;;5099922;28;20195;-83
2021/09/22 06:22:06;;;;;;;12.67;8.33;;;11.60;99.90;;;;;;5091533;28;20496;-82
2021/09/22 06:24:34;;;;;;;9.15;8.25;;;11.60;99.90;;;;;;5097423;28;20753;-84
2021/09/22 06:27:01;;;;;;;11.00;8.37;;;11.60;99.90;;;;;;5098155;28;20220;-84
2021/09/22 06:29:29;;;;;;;13.10;8.87;;;11.60;99.90;;;;;;5098498;28;20991;-82
2021/09/22 06:31:58;;;;;;;9.35;8.35;;;11.70;99.90;;;;;;5097607;28;20518;-82
2021/09/22 06:34:25;;;;;;;9.43;8.43;;;11.70;99.90;;;;;;5091788;28;20196;-83
2021/09/22 06:36:52;;;;;;;16.57;8.80;;;11.70;99.90;;;;;;5088854;28;20470;-81
2021/09/22 06:39:19;;;;;;;13.80;8.47;;;11.80;99.90;;;;;;5094490;28;20470;-83
2021/09/22 06:41:46;;;;;;;13.97;8.50;;;11.80;99.90;;;;;;5097487;28;20465;-82
2021/09/22 06:44:13;;;;;;;10.60;8.23;;;11.80;99.90;;;;;;5091739;28;20547;-82
2021/09/22 06:46:40;;;;;;;8.37;7.50;;;11.90;99.90;;;;;;5094290;28;20469;-83
2021/09/22 06:49:09;;;;;;;10.60;9.20;;;11.90;99.90;;;;;;5088317;28;20467;-84
2021/09/22 06:51:36;;;;;;;15.60;9.50;;;11.90;99.90;;;;;;5095912;28;20468;-82
2021/09/22 06:54:02;;;;;;;11.40;10.18;;;12.00;99.90;;;;;;5091708;28;20465;-85
2021/09/22 06:56:30;;;;;;;11.90;8.87;;;12.00;99.90;;;;;;5095909;28;20209;-83
2021/09/22 06:58:56;;;;;;;11.07;9.40;;;12.00;99.90;;;;;;5098538;28;20470;-83
2021/09/22 07:01:42;;;;;;;10.47;8.77;;;12.00;99.90;;;;;;5092753;28;20223;-81
2021/09/22 07:04:10;;;;;;;12.60;8.80;;;12.10;99.90;;;;;;5101804;28;20857;-82
2021/09/22 07:06:37;;;;;;;10.27;9.07;;;12.10;99.90;;;;;;5098390;28;20514;-83
2021/09/22 07:09:04;;;;;;;12.57;11.00;;;12.10;99.90;;;;;;5098860;28;20481;-82
2021/09/22 07:11:32;;;;;;;14.07;9.93;;;12.20;99.90;;;;;;5100120;28;20542;-84
2021/09/22 07:13:59;;;;;;;12.20;9.70;;;12.20;99.90;;;;;;5102847;28;20469;-84
2021/09/22 07:16:27;;;;;;;11.53;9.20;;;12.30;99.90;;;;;;5098518;28;20875;-84
2021/09/22 07:18:54;;;;;;;12.57;9.90;;;12.40;99.90;;;;;;5094767;28;20468;-83
2021/09/22 07:21:22;;;;;;;12.97;10.23;;;12.40;99.90;;;;;;5092163;28;20561;-82
2021/09/22 07:23:49;;;;;;;14.60;9.80;;;12.50;99.90;;;;;;5097021;28;20500;-81
2021/09/22 07:26:16;;;;;;;20.33;12.03;;;12.60;99.90;;;;;;5099679;28;20499;-82
2021/09/22 07:28:43;;;;;;;15.53;12.67;;;12.70;99.90;;;;;;5098942;28;20489;-84
2021/09/22 07:31:11;;;;;;;27.80;12.80;;;12.80;99.90;;;;;;5097738;28;20538;-83
2021/09/22 07:33:38;;;;;;;26.53;14.87;;;12.90;99.90;;;;;;5097376;28;20998;-83
2021/09/22 07:36:06;;;;;;;18.20;13.00;;;13.00;99.90;;;;;;5099999;28;20970;-81
2021/09/22 07:38:34;;;;;;;19.60;12.97;;;13.10;99.90;;;;;;5094395;28;20467;-84
2021/09/22 07:41:01;;;;;;;24.17;14.93;;;13.20;99.90;;;;;;5093105;28;20461;-82
2021/09/22 07:43:29;;;;;;;17.87;13.40;;;13.30;99.90;;;;;;5101323;28;20481;-83
2021/09/22 07:45:55;;;;;;;19.80;13.40;;;13.40;99.90;;;;;;5085661;28;20465;-84
2021/09/22 07:48:23;;;;;;;18.40;12.83;;;13.50;99.90;;;;;;5091535;28;20553;-82
2021/09/22 07:50:50;;;;;;;21.80;12.67;;;13.60;99.90;;;;;;5087893;28;20549;-82
2021/09/22 07:53:17;;;;;;;27.30;12.40;;;13.70;99.90;;;;;;5096122;27;20460;-81
2021/09/22 07:55:46;;;;;;;23.40;12.03;;;13.80;99.90;;;;;;5097273;28;20466;-82
2021/09/22 07:58:13;;;;;;;34.00;12.47;;;13.90;99.90;;;;;;5082503;28;20470;-84
2021/09/22 08:00:40;;;;;;;31.57;13.00;;;13.90;99.90;;;;;;5099438;28;20740;-82
2021/09/22 08:03:07;;;;;;;46.53;11.80;;;14.10;99.90;;;;;;5089732;28;20478;-82
2021/09/22 08:05:38;;;;;;;25.83;11.67;;;14.20;99.90;;;;;;5088714;28;20570;-82
2021/09/22 08:08:06;;;;;;;27.90;11.23;;;14.30;99.90;;;;;;5091125;28;20519;-82
2021/09/22 08:10:33;;;;;;;33.07;10.43;;;14.30;99.90;;;;;;5091975;28;20464;-82
2021/09/22 08:13:02;;;;;;;36.37;10.90;;;14.40;99.90;;;;;;5097463;28;20474;-82
2021/09/22 08:15:29;;;;;;;24.63;11.13;;;14.50;99.90;;;;;;5088976;28;20468;-85
2021/09/22 08:17:56;;;;;;;26.30;10.33;;;14.50;99.90;;;;;;5092446;28;20742;-83
2021/09/22 08:20:24;;;;;;;40.20;11.90;;;14.60;99.90;;;;;;5091009;28;20787;-83
2021/09/22 08:22:52;;;;;;;25.10;11.73;;;14.70;99.90;;;;;;5089146;28;20518;-82
2021/09/22 08:25:20;;;;;;;30.60;11.80;;;14.70;99.90;;;;;;5090879;28;20624;-83
2021/09/22 08:27:48;;;;;;;28.67;12.80;;;14.80;99.90;;;;;;5096335;28;21058;-83
2021/09/22 08:30:17;;;;;;;26.67;12.90;;;14.80;99.90;;;;;;5098881;28;20502;-85
2021/09/22 08:32:45;;;;;;;23.83;11.73;;;14.90;99.90;;;;;;5094490;28;20455;-83
2021/09/22 08:35:12;;;;;;;26.70;11.07;;;14.90;99.90;;;;;;5084462;28;20484;-83
2021/09/22 08:37:40;;;;;;;28.53;11.07;;;15.00;99.90;;;;;;5096050;28;20475;-84
2021/09/22 08:40:10;;;;;;;21.90;11.50;;;15.00;99.90;;;;;;5090188;28;20562;-82
2021/09/22 08:42:37;;;;;;;18.90;10.90;;;15.10;99.90;;;;;;5092401;28;20462;-82
2021/09/22 08:45:06;;;;;;;22.00;12.40;;;15.10;99.90;;;;;;5093410;28;20501;-82
2021/09/22 08:47:35;;;;;;;23.50;11.30;;;15.20;99.90;;;;;;5095103;28;20488;-83
2021/09/22 08:50:03;;;;;;;23.03;11.97;;;15.20;99.90;;;;;;5093062;28;20540;-83
2021/09/22 08:52:30;;;;;;;29.87;10.00;;;15.30;99.90;;;;;;5094971;28;20465;-82
2021/09/22 08:54:58;;;;;;;19.97;10.40;;;15.40;99.90;;;;;;5097667;28;20465;-84
2021/09/22 08:57:26;;;;;;;15.77;10.10;;;15.40;99.90;;;;;;5088698;28;20474;-83
2021/09/22 08:59:52;;;;;;;23.23;11.07;;;15.50;99.90;;;;;;5096175;28;20562;-82
2021/09/22 09:02:21;;;;;;;18.93;11.00;;;15.50;99.90;;;;;;5093045;28;20552;-82
2021/09/22 09:05:04;;;;;;;16.30;10.20;;;15.60;99.90;;;;;;5088534;28;20484;-83
2021/09/22 09:07:33;;;;;;;17.97;11.40;;;15.60;99.90;;;;;;5088649;28;20457;-83
2021/09/22 09:10:07;;;;;;;20.13;11.13;;;15.70;99.90;;;;;;5093534;28;20462;-82
2021/09/22 09:12:35;;;;;;;20.30;11.90;;;15.70;99.90;;;;;;5091270;28;20832;-83
2021/09/22 09:15:08;;;;;;;19.70;11.60;;;15.80;99.90;;;;;;5092868;28;21132;-83
2021/09/22 09:17:41;;;;;;;17.80;12.03;;;15.80;99.90;;;;;;5089631;28;21397;-83
2021/09/22 09:20:20;;;;;;;17.47;11.87;;;15.80;99.90;;;;;;5095773;28;20456;-85
2021/09/22 09:23:06;;;;;;;18.97;10.20;;;15.90;99.90;;;;;;5097978;28;20540;-84
2021/09/22 09:25:36;;;;;;;18.23;10.67;;;16.00;99.90;;;;;;5093886;28;20811;-82
2021/09/22 09:28:17;;;;;;;23.30;12.30;;;16.10;99.90;;;;;;5095579;28;20477;-83
2021/09/22 09:30:48;;;;;;;16.57;12.57;;;16.10;99.90;;;;;;5104265;28;20482;-81
2021/09/22 09:33:41;;;;;;;20.93;10.13;;;16.20;99.90;;;;;;5096816;28;20461;-82
2021/09/22 09:36:23;;;;;;;19.17;10.57;;;16.30;99.90;;;;;;5091304;28;20472;-82
2021/09/22 09:38:59;;;;;;;14.43;8.43;;;16.30;99.90;;;;;;5091747;28;20464;-82
2021/09/22 09:41:31;;;;;;;14.50;9.40;;;16.40;99.90;;;;;;5100894;28;20466;-84
2021/09/22 09:44:00;;;;;;;16.40;10.70;;;16.50;99.90;;;;;;5092975;28;21023;-82
2021/09/22 09:46:32;;;;;;;22.47;10.13;;;16.50;99.90;;;;;;5093297;28;20949;-81
2021/09/22 09:49:01;;;;;;;18.67;12.00;;;16.50;99.90;;;;;;5102174;28;20461;-84
2021/09/22 09:51:41;;;;;;;22.13;11.20;;;16.60;99.90;;;;;;5098302;28;20461;-83
2021/09/22 09:54:15;;;;;;;14.20;9.50;;;16.60;99.90;;;;;;5094521;28;20454;-85
2021/09/22 09:56:42;;;;;;;22.53;11.63;;;16.70;99.90;;;;;;5096842;28;20552;-84
2021/09/22 09:59:10;;;;;;;19.93;10.83;;;16.70;99.90;;;;;;5095367;28;20537;-83
2021/09/22 10:01:43;;;;;;;13.50;8.07;;;16.80;99.90;;;;;;5095613;28;20896;-83
2021/09/22 10:04:11;;;;;;;20.83;9.83;;;16.90;99.90;;;;;;5094712;28;20918;-83
2021/09/22 10:06:42;;;;;;;17.40;10.20;;;16.90;99.90;;;;;;5090763;28;20487;-82
2021/09/22 10:09:09;;;;;;;24.50;11.63;;;17.00;99.90;;;;;;5098727;28;20487;-86
2021/09/22 10:11:38;;;;;;;20.13;11.13;;;17.00;99.90;;;;;;5096792;28;20460;-84
2021/09/22 10:14:07;;;;;;;19.50;11.67;;;17.10;99.90;;;;;;5093928;28;20547;-84
2021/09/22 10:16:35;;;;;;;31.43;11.60;;;17.10;99.90;;;;;;5097780;28;20455;-83
2021/09/22 10:19:05;;;;;;;14.40;8.90;;;17.10;99.90;;;;;;5099458;28;20451;-84
2021/09/22 10:21:34;;;;;;;18.63;9.63;;;17.20;99.90;;;;;;5097223;28;20456;-84
2021/09/22 10:24:07;;;;;;;16.33;10.50;;;17.20;99.90;;;;;;5093229;28;20493;-82
2021/09/22 10:26:34;;;;;;;24.20;9.83;;;17.20;99.90;;;;;;5094993;28;20482;-83
2021/09/22 10:29:19;;;;;;;15.40;8.90;;;17.30;99.90;;;;;;5096749;28;20591;-85
2021/09/22 10:31:47;;;;;;;17.80;10.23;;;17.30;99.90;;;;;;5101738;28;20463;-83
2021/09/22 10:34:32;;;;;;;30.43;10.53;;;17.40;99.90;;;;;;5096178;28;20511;-83
2021/09/22 10:37:00;;;;;;;17.10;10.13;;;17.40;99.90;;;;;;5104237;28;20504;-83
2021/09/22 10:39:43;;;;;;;15.27;9.90;;;17.50;99.90;;;;;;5101668;28;20462;-82
2021/09/22 10:42:29;;;;;;;16.30;10.83;;;17.50;99.90;;;;;;5104061;28;20463;-84
2021/09/22 10:45:16;;;;;;;19.90;11.10;;;17.50;99.90;;;;;;5094555;28;20497;-83
2021/09/22 10:47:44;;;;;;;15.33;8.87;;;17.60;99.90;;;;;;5100146;28;20548;-84
2021/09/22 10:50:35;;;;;;;12.23;8.57;;;17.60;99.90;;;;;;5099377;28;20464;-85
2021/09/22 10:53:02;;;;;;;16.63;9.63;;;17.70;99.90;;;;;;5100232;28;20465;-82
2021/09/22 10:55:31;;;;;;;14.23;8.40;;;17.80;99.90;;;;;;5098652;28;20458;-88
2021/09/22 10:58:14;;;;;;;14.20;9.80;;;17.80;99.90;;;;;;5096585;28;20574;-83
2021/09/22 11:00:41;;;;;;;8.20;7.13;;;17.90;99.90;;;;;;5097175;28;20484;-82
2021/09/22 11:03:08;;;;;;;18.03;10.90;;;18.00;99.90;;;;;;5102432;28;20485;-82
2021/09/22 11:05:36;;;;;;;12.70;8.97;;;18.00;99.90;;;;;;5103992;28;20847;-83
2021/09/22 11:08:05;;;;;;;14.40;10.87;;;18.00;99.90;;;;;;5099583;28;20725;-81
2021/09/22 11:10:44;;;;;;;13.43;9.60;;;18.10;99.90;;;;;;5091649;28;20969;-82
2021/09/22 11:13:37;;;;;;;17.77;11.60;;;18.10;99.90;;;;;;5096835;28;20849;-82
2021/09/22 11:16:20;;;;;;;12.10;9.63;;;18.20;99.90;;;;;;5096039;28;20455;-81
2021/09/22 11:18:51;;;;;;;17.90;13.43;;;18.20;99.90;;;;;;5100180;28;20457;-82
2021/09/22 11:21:24;;;;;;;18.30;13.23;;;18.30;99.90;;;;;;5101713;28;20815;-82
2021/09/22 11:23:52;;;;;;;19.00;12.40;;;18.30;99.90;;;;;;5104053;28;20500;-82
2021/09/22 11:26:20;;;;;;;16.77;13.10;;;18.30;99.90;;;;;;5103616;28;20551;-82
2021/09/22 11:28:49;;;;;;;17.73;12.80;;;18.30;99.90;;;;;;5096182;28;20506;-82
2021/09/22 11:31:17;;;;;;;17.33;11.97;;;18.30;99.90;;;;;;5095118;28;20552;-83
2021/09/22 11:33:44;;;;;;;14.70;11.10;;;18.30;99.90;;;;;;5094805;28;20492;-84
2021/09/22 11:36:13;;;;;;;12.73;10.30;;;18.40;99.90;;;;;;5093662;28;20514;-82
2021/09/22 11:38:41;;;;;;;17.93;11.83;;;18.40;99.90;;;;;;5094206;28;20491;-83
2021/09/22 11:41:08;;;;;;;18.10;12.83;;;18.40;99.90;;;;;;5091702;28;20475;-81
2021/09/22 11:43:38;;;;;;;12.57;10.30;;;18.40;99.90;;;;;;5090742;28;20906;-82
2021/09/22 11:46:05;;;;;;;15.80;12.50;;;18.50;99.90;;;;;;5080869;28;20475;-83
2021/09/22 11:48:34;;;;;;;13.80;11.27;;;18.50;99.90;;;;;;5085484;28;20836;-82
2021/09/22 11:51:05;;;;;;;15.37;11.33;;;18.50;99.90;;;;;;5094204;28;20463;-86
2021/09/22 11:53:35;;;;;;;12.17;8.83;;;18.60;99.90;;;;;;5086613;28;20809;-85
2021/09/22 11:56:04;;;;;;;18.47;11.37;;;18.60;99.90;;;;;;5096522;28;20564;-85
2021/09/22 11:58:34;;;;;;;14.17;10.33;;;18.60;99.90;;;;;;5092376;28;20460;-82
2021/09/22 12:01:05;;;;;;;12.60;9.53;;;18.70;99.90;;;;;;5101713;28;20469;-82
2021/09/22 12:03:34;;;;;;;11.77;9.30;;;18.70;99.90;;;;;;5093245;28;20987;-83
2021/09/22 12:06:09;;;;;;;13.77;11.10;;;18.70;99.90;;;;;;5097125;28;20526;-82
2021/09/22 12:08:38;;;;;;;13.10;9.40;;;18.70;99.90;;;;;;5090327;28;20466;-82
2021/09/22 12:11:06;;;;;;;20.60;8.87;;;18.70;99.90;;;;;;5093134;28;20557;-84
2021/09/22 12:13:41;;;;;;;8.73;7.70;;;18.70;99.90;;;;;;5094949;28;20462;-82
2021/09/22 12:16:10;;;;;;;14.50;8.10;;;18.80;99.90;;;;;;5092932;28;20495;-82
2021/09/22 12:18:39;;;;;;;12.07;7.97;;;18.80;99.90;;;;;;5090755;28;20448;-85
2021/09/22 12:21:06;;;;;;;11.30;8.33;;;18.80;99.90;;;;;;5093872;28;20918;-85
2021/09/22 12:23:35;;;;;;;12.57;11.00;;;18.80;99.90;;;;;;5090655;28;20472;-82
2021/09/22 12:26:11;;;;;;;12.77;8.73;;;18.90;99.90;;;;;;5092585;28;20484;-84
2021/09/22 12:28:40;;;;;;;9.20;7.73;;;18.90;99.90;;;;;;5095367;28;20514;-82
2021/09/22 12:31:19;;;;;;;12.70;7.90;;;18.90;99.90;;;;;;5089918;28;20480;-84
2021/09/22 12:33:47;;;;;;;8.33;7.47;;;19.00;99.90;;;;;;5093146;28;20460;-84
2021/09/22 12:36:16;;;;;;;9.60;7.83;;;19.00;99.90;;;;;;5093763;28;20522;-82
2021/09/22 12:38:49;;;;;;;8.50;6.83;;;19.00;99.90;;;;;;5093810;28;20521;-82
2021/09/22 12:41:16;;;;;;;8.20;6.00;;;19.10;99.90;;;;;;5092343;28;20467;-82
2021/09/22 12:43:44;;;;;;;9.57;8.57;;;19.10;99.90;;;;;;5090073;28;20453;-85
2021/09/22 12:46:12;;;;;;;11.20;8.47;;;19.10;99.90;;;;;;5082639;28;20944;-86
2021/09/22 12:48:42;;;;;;;18.40;9.70;;;19.10;99.90;;;;;;5084152;28;20465;-81